Accueil
METAR-TAF:

METAR-TAF

Aéroports :

Niamey, Niger

Aéroport international Diori Hamani

latitude: 13-29N, longitude: 002-10E, altitude: 223 m

Observation

Le bulletin a été fait il y a 36 minutes, à 00:00 UTC
Vent 6 kt de nord
Température 25°C
Humidité 39%
Pression 1014 hPa
Visibilité 10 km ou plus
pas de nuages en-dessous de 1500 mètres et pas de cumulonimbus.

METAR: DRRN 140000Z 01006KT CAVOK 25/10 Q1014 NOSIG

Heure: 01:36 (00:36 UTC)

Prévision

Le bulletin a été fait il y a 1 heure et 36 minutes, à 23:00 UTC
Prévision valable du 14 à 00 UTC au 15 à 06 UTC
Vent 8 kt de est
Visibilité: 8000 m
Temporairement
du 14 à 06 UTC au 14 à 09 UTC
Visibilité: 4000 m
poussière généralisée

TAF: DRRN 132300Z 1400/1506 08008KT 8000 NSC TEMPO 1406/1409 4000 DU

Observations et prévisions météorologiques de plus de 4000 aéroports (messages METAR et TAF).

Les stations disponibles sont représentées par des disques jaunes et rouges sur la carte.

Passer la souris dessus pour voir le nom de la station.

Cliquer dessus pour voir les observations et prévisions météorologiques.

Pour changer de carte: cliquez sur les boutons verts avec une croix noire pour zoomer, sur le bouton vert avec un tiret pour effectuer un zoom arrière, ou sur les flèches vertes pour les cartes adjacentes.


METAR-TAF: